Search flights

Carthage Airport, Tunis (DTTA)

Airport Weather & NOTAM's

METAR for:DTTA (Tunis/Carthage Intl, AR, TN)
Text:DTTA 151730Z VRB05KT CAVOK 29/22 Q1013
Conditions at:1730 UTC 15 Jul 2024
Temperature: 29.0°C ( 84°F)
Dewpoint: 22.0°C ( 72°F) [RH = 66%]
Pressure (altimeter):29.91 inches Hg (1013.0 mb)
Winds:variable direction winds at 6 MPH (5 knots; 2.6 m/s)
Visibility:6 or more sm (10+ km)
Ceiling:ceiling and visibility are OK
Clouds:unknown
TAF for:DTTA (Tunis/Carthage Intl, AR, TN) issued at 1700 UTC 15 Jul 2024
Text:TAF DTTA 151700Z 1518/1618 01010KT CAVOK
Forecast period:1800 UTC 15 July 2024 to 1000 UTC 16 July 2024
Forecast type:FROM: standard forecast or significant change
Winds:from the N (10 degrees) at 12 MPH (10 knots; 5.1 m/s)
Visibility:6 or more sm (10+ km)
Clouds:missing
Weather:NSW (no significant weather)
Text:BECMG 1610/1612 06010KT
Forecast period:1000 to 1800 UTC 16 July 2024
Forecast type:BECOMING: Conditions expected to become as follows by 1200 UTC 16 July 2024
Winds:from the ENE (60 degrees) at 12 MPH (10 knots; 5.1 m/s)
Visibility:6 or more sm (10+ km)
Clouds:missing
Weather:NSW (no significant weather)

Live Departures & Arrivals

There are currently no arrivals or departures for this airport.

Departures History (last 12 months)

Flight No. Dest. Aircraft Date
FWM06 FMEE PMDG 777-3... 2024-07-06 20:58:07
FWM06 OMDB PMDG 777-3... 2024-06-30 06:23:06
FWM458 DTTJ FSLabs A32... 2024-06-03 20:02:20
FWM1485 LTFM ToLissA319... 2024-05-10 12:49:24
LBT516 LFML Fenix A320... 2024-03-18 12:46:22
LBT281 DTTJ Fenix A320... 2024-02-29 14:49:44
TUX010 DTTJ FenixA320_... 2024-02-26 18:14:46
LBT586 LFMN FenixA320_... 2024-02-26 14:43:42
LBT130 DAAG FenixA320_... 2024-02-26 11:23:34
THY662 LTFM PMDG 737-9... 2024-02-19 11:32:15
FWM93 LFBD PMDG 737-6... 2024-02-17 11:54:45
FWM93 HLLT PMDG 737-6... 2024-02-14 20:16:16
FWM14 LICZ FenixA320_... 2024-01-19 01:41:23
TAR397 DIAP FenixA320_... 2024-01-14 12:04:55
FWM14 LIRF FenixA320_... 2024-01-13 14:21:14
FWM14 LOWI FenixA320_... 2023-12-30 17:43:31
FWM427 LTFM ToLissA320... 2023-12-25 10:21:27
LBT634 LIMC FenixA320_... 2023-12-21 14:24:29
FWM14 DTTJ FenixA320_... 2023-12-20 23:53:54
FWM93 DTTJ PMDG 737-7... 2023-12-07 18:00:44
TAR713 OEJN FenixA320_... 2023-12-06 17:02:02
FWM93 EDDF PMDG 737-7... 2023-12-02 16:59:30
FWM93 LFMN PMDG 737-6... 2023-11-17 20:14:44
FWM93 LFPO PMDG 737-6... 2023-11-12 15:52:30
FWM14 DTTJ FenixA320_... 2023-11-12 12:33:38
FWM93 LIEO PMDG 737-8... 2023-11-11 18:52:03
FWM14 DTTJ FenixA320_... 2023-11-05 17:22:46
FWM14 DTTJ FenixA320_... 2023-10-25 15:49:30
FWM93 LFML PMDG 737-6... 2023-10-15 12:53:40
FWM93 DTTJ FenixA320_... 2023-10-08 18:37:57
FWM93 DTTJ FenixA320_... 2023-09-22 15:50:10
FWM14 DTTJ FenixA320_... 2023-09-22 16:21:31
FWM14 LJLJ FenixA320_... 2023-09-05 14:19:53
FWM5C LEMD PMDG 737-6... 2023-09-04 00:27:26
FWM454 LFMN ToLissA320... 2023-08-31 23:05:27
FWM93 DTTX PMDG 737-6... 2023-08-26 18:50:24
FWM93 DAAG FenixA320_... 2023-08-23 19:54:25
FWM1804 DAAG Airbus A32... 2023-08-23 20:22:49
FWM93 LIEO PMDG 737-6... 2023-08-16 20:08:54
FWM47 LIMC Airbus A34... 2023-08-13 18:11:05
FWM93 LFML FenixA320_... 2023-08-12 19:49:39
FWM14 LFML FenixA320_... 2023-08-11 13:15:18
FWM47 DTTJ Airbus A34... 2023-08-10 20:25:05
FWM93 LFPO FenixA320_... 2023-08-02 18:37:10
FWM7MR LFPO Boeing 737... 2023-08-02 18:33:55
FWM14 LPPR FenixA320_... 2023-08-02 14:01:57
FWM7MR DAAG Boeing 737... 2023-07-31 09:08:57
FWM14 LIMC FenixA320_... 2023-07-31 12:57:24
FWM93 LFPG FenixA320_... 2023-07-30 16:05:31
FWM721 EDDL Boeing 737... 2023-07-24 21:55:40

Arrivals History (last 12 months)

Flight No. Origin Aircraft Date
FWM06 OEJN PMDG 777-3... 2024-06-27 12:10:07
TAR841 GOBD Fenix A320... 2024-04-18 15:43:21
FWM06 LKPR Fenix A320... 2024-04-07 09:35:16
LBT9042 DTTJ Fenix A320... 2024-03-25 02:52:47
LBT9020 DTTJ Fenix A320... 2024-03-03 14:57:17
FWM5C HLLT FenixA320_... 2024-03-03 19:00:46
LBT281 EDDM Fenix A320... 2024-02-29 14:26:37
{}G-FENX DTTJ FenixA320... 2024-02-28 21:09:03
LBT93 DTTX Fenix A320... 2024-02-28 21:05:48
LBT334 LEBL FenixA320_... 2024-02-28 15:22:40
LBT587 LFMN FenixA320_... 2024-02-26 17:52:09
LBT131 DAAG FenixA320_... 2024-02-26 14:43:27
TAR791 EGLL FenixA320_... 2024-02-25 17:56:46
TAR851 LFLL FenixA320_... 2024-02-17 20:04:00
FWM93 LFBD PMDG 737-8... 2024-02-17 21:06:29
FWM93 HLLT PMDG 737-6... 2024-02-14 23:23:41
LBT189 EHAM FenixA320_... 2024-01-02 18:16:50
FWM93 DTTJ PMDG 737-6... 2023-12-21 18:07:57
TAR714 OEJN FenixA320_... 2023-12-18 05:22:12
FWM93 LIMJ FenixA320_... 2023-12-10 17:28:25
FWM14 LGAV FenixA320_... 2023-12-10 16:50:40
FWM003 LFML PMDG 737-6... 2023-11-25 19:51:34
FWM47 DTTJ Airbus A32... 2023-11-07 23:57:08
FWM93 DTTJ PMDG 737-6... 2023-11-06 21:18:44
FWM14 LFML FenixA320_... 2023-10-25 15:49:23
FWM14 LFML FenixA320_... 2023-09-22 16:17:23
FWM1980 DAAG FenixA320_... 2023-09-08 11:59:18
FWM5C GMMN PMDG 737-6... 2023-09-04 00:22:14
FWM93 DTTX PMDG 737-6... 2023-08-26 21:02:05
FWM14 LFML FenixA320_... 2023-08-11 16:29:29
FWM7MR LFMN B737-800X... 2023-07-30 23:54:55
FWM721 LFMT Boeing 737... 2023-07-23 00:45:45

Runway Information (Airport elevation: 16ft)

Runway 01 Length 10,506ft Width 137ft Elevation 16ft Surface Asphalt Heading 12
Runway 11 Length 9,346ft Width 147ft Elevation 16ft Surface Asphalt Heading 113
Runway 19 Length 10,506ft Width 137ft Elevation 16ft Surface Asphalt Heading 192
Runway 29 Length 9,346ft Width 147ft Elevation 16ft Surface Asphalt Heading 293

Airport Frequencies

Type APP/DEP Frequency 119.500 Mhz
Type APP/DEP Frequency 121.200 Mhz
Type ATIS Frequency 118.675 Mhz
Type Ground Frequency 121.900 Mhz
Type Tower Frequency 118.100 Mhz
Type APP/DEP Frequency 119.500 Mhz
Type APP/DEP Frequency 121.200 Mhz

Airport Navaids

Type NDB Ident KDN Frequency 386 Khz
Type NDB Ident TS Frequency 325 Khz
Type VOR-DME Ident TUC Frequency 116500 Khz